AirNav   $300 off a Bose A20 aviation headset
 
 382 users online  

82KY Woodledge Farm Airport
Crestwood, Kentucky, USA

GOING TO CRESTWOOD?


FAA INFORMATION EFFECTIVE 28 FEBRUARY 2019

Location

FAA Identifier: 82KY
Lat/Long: 38-17-00.2520N / 085-28-54.8540W
38-17.004200N / 085-28.914233W
38.2834033 / -85.4819039
(estimated)
Elevation: 680 ft. / 207 m (estimated)
Variation: 02W (1990)
From city: 3 miles NE of CRESTWOOD, KY
Time zone: UTC -5 (UTC -4 during Daylight Saving Time)
Zip code: 40245

Airport Operations

Airport use: Private use. Permission required prior to landing
Activation date: 04/1993
Control tower: no
ARTCC: INDIANAPOLIS CENTER
FSS: LOUISVILLE FLIGHT SERVICE STATION
Attendance: UNATNDD
Wind indicator: yes
Segmented circle: no

Airport Communications

WX ASOS at LOU (9 nm W): 118.275 (502-473-0693)
WX AWOS-3 at JVY (13 nm W): 118.575 (812-246-1278)
WX ASOS at SDF (14 nm SW): PHONE 502-367-1492

Nearby radio navigation aids

VOR radial/distance  VOR name  Freq  Var
BQMr074/9.2BOWMAN VOR/DME112.2004W
IIUr022/11.7LOUISVILLE VORTAC114.8001E
FFTr286/(27.7)FRANKFORT VOR109.4003W
FTKr047/32.3FORT KNOX VOR/DME109.6001W

 
NDB name  Hdg/Dist  Freq  Var  ID
LAANG045/11.041404WLK .-.. -.-
GODMAN053/30.439603WGOI --. --- ..

Airport Services

Runway Information

Runway 12/30

Dimensions: 1700 x 80 ft. / 518 x 24 m
Surface: turf
RUNWAY 12  RUNWAY 30
Traffic pattern: rightleft
Displaced threshold: 200 ft.no
Obstructions: 50 ft. other, 100 ft. from runway
WIRES
25 ft. trees, 150 ft. from runway

Airport Ownership and Management from official FAA records

Ownership: Privately-owned
Owner: E. J. SCHICKLI, JR.
14411 OLD HENRY ROAD
ANCHORAGE, KY 40245
Phone (502) 425-9679
Manager: E. J. SCHICKLI, JR.
14411 OLD HENRY ROAD
ANCHORAGE, KY 40245
Phone (502) 425-9679

Airport Operational Statistics

Aircraft based on the field: 4
Single engine airplanes: 3
Ultralights: 1
    

Additional Remarks

OWNER DESIRES ARPT NOT BE CHARTED.

Instrument Procedures

There are no published instrument procedures at 82KY.

Some nearby airports with instrument procedures:

KLOU - Bowman Field Airport (9 nm W)
KJVY - Clark Regional Airport (13 nm NW)
KSDF - Louisville International Airport-Standiford Field (14 nm SW)
KFFT - Capital City Airport (28 nm E)
KBRY - Samuels Field Airport (28 nm S)
 
Loc | Ops | Rwys | IFR | FBO | Links
Com | Nav | Svcs | Stats | Notes
Area around 82KY (Woodledge Farm Airport)
 
Road maps at: MapQuest Bing Google
 
Aerial photo
WARNING: Photo may not be current or correct
Aerial photo of 82KY (Woodledge Farm Airport)
Photo by Robert C. Wilmoth of Louisville, KY
Photo taken 23-Aug-2012

Do you have a better or more recent aerial photo of Woodledge Farm Airport that you would like to share? If so, please send us your photo.

 
Sectional chart

 
Airport distance calculator
Flying to Woodledge Farm Airport? Find the distance to fly.

From to 82KY

Sunrise and sunset
Times for 20-Mar-2019
 Local
(UTC-4)
 Zulu
(UTC)
Morning civil twilight07:2011:20
Sunrise07:4611:46
Sunset19:5223:52
Evening civil twilight20:1900:19

Current date and time
Zulu (UTC)  20-Mar-2019 06:18:00
Local (UTC-4)  20-Mar-2019 02:18:00
 
METAR
KLOU 
10nm SW 
200553Z AUTO 00000KT 10SM CLR 04/M04 A3030 RMK AO2 SLP261 T00441044 10094 20039 58010 $
KJVY 
13nm W 
200555Z AUTO 00000KT 10SM CLR 03/01 A3030 RMK AO2 T00270007 10094 20027
KSDF 
13nm SW 
200556Z 00000KT 10SM BKN250 07/M06 A3030 RMK AO2 SLP260 T00721056 10100 20072 58010
TAF
KSDF 
13nm SW 
200539Z 2006/2112 13003KT P6SM BKN250 FM201700 20012KT P6SM BKN080 FM210100 24008KT P6SM -RA OVC040 FM210300 24006KT P6SM -RA OVC015 FM210500 24006KT 4SM -RA OVC008 FM211000 27005KT 6SM -RA OVC009
NOTAMs
Click for the latest NOTAMs
NOTAMs are issued by the DoD/FAA and will open in a separate window not controlled by AirNav.

 

 
 

Would you like to see your business listed on this page?

 If your business provides an interesting product or service to pilots, flight crews, aircraft, or users of the Woodledge Farm Airport, you should consider listing it here.  To start the listing process, click on the button below
 
Add a business
 

Other Pages about Woodledge Farm Airport

Update a link
 
Copyright © AirNav, LLC. All rights reserved. Privacy Policy  Contact